createdAt,value
2022-12-03T00:01:25.073Z,15.60
2022-12-03T00:03:51.678Z,15.60
2022-12-03T00:06:18.437Z,15.60
2022-12-03T00:08:45.013Z,15.60
2022-12-03T00:11:11.565Z,15.60
2022-12-03T00:13:38.151Z,15.60
2022-12-03T00:16:05.420Z,15.60
2022-12-03T00:18:32.066Z,15.50
2022-12-03T00:20:58.633Z,15.50
2022-12-03T00:23:25.212Z,15.50
2022-12-03T00:25:51.812Z,15.50
2022-12-03T00:28:18.384Z,15.50
2022-12-03T00:30:45.049Z,15.50
2022-12-03T00:33:11.617Z,15.50
2022-12-03T00:35:38.195Z,15.50
2022-12-03T00:38:04.895Z,15.50
2022-12-03T00:40:31.501Z,15.50
2022-12-03T00:42:58.067Z,15.50
2022-12-03T00:45:26.965Z,15.50
2022-12-03T00:47:53.505Z,15.50
2022-12-03T00:50:20.149Z,15.50
2022-12-03T00:52:46.691Z,15.40
2022-12-03T00:55:13.373Z,15.40
2022-12-03T00:57:39.976Z,15.40
2022-12-03T01:00:07.204Z,15.40
2022-12-03T01:02:33.765Z,15.40
2022-12-03T01:05:00.556Z,15.40
2022-12-03T01:07:29.622Z,15.40
2022-12-03T01:09:56.215Z,15.40
2022-12-03T01:12:22.817Z,15.40
2022-12-03T01:14:49.389Z,15.40
2022-12-03T01:17:15.982Z,15.40
2022-12-03T01:19:48.041Z,15.40
2022-12-03T01:22:15.093Z,15.40
2022-12-03T01:24:41.646Z,15.30
2022-12-03T01:27:08.231Z,15.40
2022-12-03T01:29:34.774Z,15.40
2022-12-03T01:32:19.698Z,15.40
2022-12-03T01:34:52.096Z,15.40
2022-12-03T01:37:21.165Z,15.40
2022-12-03T01:39:47.809Z,15.40
2022-12-03T01:42:26.901Z,15.30
2022-12-03T01:44:56.630Z,15.30
2022-12-03T01:47:29.871Z,15.30
2022-12-03T01:50:22.681Z,15.30
2022-12-03T01:52:49.455Z,15.30
2022-12-03T01:55:22.750Z,15.30
2022-12-03T01:57:53.873Z,15.30
2022-12-03T02:00:23.435Z,15.30
2022-12-03T02:02:53.179Z,15.30
2022-12-03T02:05:26.500Z,15.30
2022-12-03T02:07:54.009Z,15.30
2022-12-03T02:10:25.818Z,15.30
2022-12-03T02:12:57.285Z,15.30
2022-12-03T02:15:24.684Z,15.30
2022-12-03T02:17:51.434Z,15.30
2022-12-03T02:20:18.608Z,15.30
2022-12-03T02:22:56.645Z,15.30
2022-12-03T02:25:28.577Z,15.20
2022-12-03T02:27:55.937Z,15.20
2022-12-03T02:30:24.852Z,15.30
2022-12-03T02:32:52.379Z,15.20
2022-12-03T02:35:22.592Z,15.20
2022-12-03T02:37:54.644Z,15.20
2022-12-03T02:40:25.754Z,15.20
2022-12-03T02:42:57.518Z,15.20
2022-12-03T02:45:34.240Z,15.20
2022-12-03T02:48:08.615Z,15.20
2022-12-03T02:50:39.872Z,15.20
2022-12-03T02:53:11.117Z,15.20
2022-12-03T02:55:37.904Z,15.30
2022-12-03T02:58:05.291Z,15.30
2022-12-03T03:00:32.699Z,15.40
2022-12-03T03:03:00.409Z,15.40
2022-12-03T03:05:27.160Z,15.50
2022-12-03T03:07:54.036Z,15.50
2022-12-03T03:10:23.355Z,15.50
2022-12-03T03:12:52.527Z,15.60
2022-12-03T03:15:19.294Z,15.60
2022-12-03T03:17:45.901Z,15.60
2022-12-03T03:20:13.824Z,15.60
2022-12-03T03:22:42.544Z,15.70
2022-12-03T03:25:13.258Z,15.70
2022-12-03T03:27:43.533Z,15.70
2022-12-03T03:30:11.288Z,15.80
2022-12-03T03:32:39.429Z,15.80
2022-12-03T03:35:07.496Z,15.80
2022-12-03T03:37:34.135Z,15.80
2022-12-03T03:40:00.733Z,15.80
2022-12-03T03:42:27.830Z,15.80
2022-12-03T03:44:56.643Z,15.80
2022-12-03T03:47:23.816Z,15.90
2022-12-03T03:49:53.341Z,15.90
2022-12-03T03:52:20.376Z,15.90
2022-12-03T03:54:47.372Z,15.90
2022-12-03T03:57:16.326Z,15.90
2022-12-03T03:59:43.211Z,15.90
2022-12-03T04:02:24.727Z,15.90
2022-12-03T04:04:51.978Z,15.90
2022-12-03T04:07:18.764Z,15.90
2022-12-03T04:09:45.467Z,15.90
2022-12-03T04:12:31.370Z,15.90
2022-12-03T04:14:58.383Z,15.90
2022-12-03T04:17:24.950Z,15.90
2022-12-03T04:19:51.617Z,15.90
2022-12-03T04:22:37.389Z,15.90
2022-12-03T04:25:23.240Z,15.90
2022-12-03T04:28:08.607Z,15.90
2022-12-03T04:30:35.214Z,15.90
2022-12-03T04:33:20.412Z,15.90
2022-12-03T04:35:47.158Z,15.90
2022-12-03T04:38:16.972Z,15.90
2022-12-03T04:41:03.852Z,15.90
2022-12-03T04:43:32.963Z,15.90
2022-12-03T04:46:00.549Z,15.90
2022-12-03T04:48:27.229Z,15.90
2022-12-03T04:50:55.867Z,15.90
2022-12-03T04:53:22.472Z,15.90
2022-12-03T04:55:49.045Z,15.90
2022-12-03T04:58:15.626Z,15.90
2022-12-03T05:00:42.255Z,15.90
2022-12-03T05:03:08.796Z,15.90
2022-12-03T05:05:35.394Z,15.90
2022-12-03T05:08:02.037Z,15.90
2022-12-03T05:10:28.620Z,15.90
2022-12-03T05:12:55.196Z,15.90
2022-12-03T05:15:21.751Z,15.90
2022-12-03T05:17:48.333Z,15.90
2022-12-03T05:20:33.402Z,15.90
2022-12-03T05:22:59.998Z,15.90
2022-12-03T05:25:26.529Z,15.90
2022-12-03T05:27:53.205Z,15.90
2022-12-03T05:30:19.866Z,15.90
2022-12-03T05:32:46.520Z,15.90
2022-12-03T05:35:13.111Z,15.80
2022-12-03T05:37:39.659Z,15.90
2022-12-03T05:40:08.400Z,15.80
2022-12-03T05:42:53.738Z,15.80
2022-12-03T05:45:25.772Z,15.80
2022-12-03T05:47:57.011Z,15.80
2022-12-03T05:50:25.992Z,15.50
2022-12-03T05:52:52.603Z,14.70
2022-12-03T05:55:19.547Z,15.00
2022-12-03T05:57:47.552Z,15.30
2022-12-03T06:00:26.750Z,15.50
2022-12-03T06:02:54.105Z,15.60
2022-12-03T06:05:21.498Z,15.70
2022-12-03T06:07:52.402Z,15.80
2022-12-03T06:10:23.326Z,15.90
2022-12-03T06:12:50.390Z,15.90
2022-12-03T06:15:17.914Z,15.90
2022-12-03T06:17:44.862Z,16.00
2022-12-03T06:20:14.737Z,16.00
2022-12-03T06:22:41.905Z,16.00
2022-12-03T06:25:09.502Z,16.00
2022-12-03T06:27:36.467Z,16.00
2022-12-03T06:30:04.045Z,16.00
2022-12-03T06:32:30.592Z,16.00
2022-12-03T06:34:57.179Z,16.10
2022-12-03T06:37:23.708Z,16.00
2022-12-03T06:39:50.273Z,16.00
2022-12-03T06:42:16.873Z,15.90
2022-12-03T06:44:43.453Z,15.90
2022-12-03T06:47:10.000Z,15.90
2022-12-03T06:49:54.887Z,16.00
2022-12-03T06:52:21.442Z,16.00
2022-12-03T06:54:47.997Z,16.00
2022-12-03T06:57:14.713Z,16.00
2022-12-03T06:59:41.362Z,16.00
2022-12-03T07:02:07.972Z,16.00
2022-12-03T07:04:34.597Z,16.00
2022-12-03T07:07:01.132Z,16.00
2022-12-03T07:09:27.899Z,16.00
2022-12-03T07:11:54.465Z,14.90
2022-12-03T07:14:21.093Z,14.70
2022-12-03T07:16:47.784Z,15.10
2022-12-03T07:19:14.459Z,15.50
2022-12-03T07:21:41.078Z,15.70
2022-12-03T07:24:08.113Z,15.80
2022-12-03T07:26:34.691Z,15.90
2022-12-03T07:29:01.504Z,15.90
2022-12-03T07:31:28.231Z,16.00
2022-12-03T07:33:54.860Z,16.00
2022-12-03T07:36:21.576Z,16.00
2022-12-03T07:38:48.645Z,16.00
2022-12-03T07:41:15.249Z,16.00
2022-12-03T07:43:41.817Z,16.00
2022-12-03T07:46:08.479Z,16.00
2022-12-03T07:48:35.178Z,16.00
2022-12-03T07:51:01.825Z,16.00
2022-12-03T07:53:28.373Z,16.10
2022-12-03T07:55:54.929Z,16.10
2022-12-03T07:58:21.517Z,16.10
2022-12-03T08:00:48.208Z,16.10
2022-12-03T08:03:17.625Z,16.10
2022-12-03T08:05:44.184Z,16.10
2022-12-03T08:08:10.812Z,16.10
2022-12-03T08:10:37.427Z,16.10
2022-12-03T08:13:10.547Z,16.10
2022-12-03T08:15:39.498Z,16.10
2022-12-03T08:18:16.595Z,16.10
2022-12-03T08:20:45.044Z,16.10
2022-12-03T08:23:17.310Z,13.70
2022-12-03T08:25:44.965Z,10.90
2022-12-03T08:28:28.186Z,11.70
2022-12-03T08:31:20.539Z,12.90
2022-12-03T08:33:49.538Z,13.80
2022-12-03T08:36:29.349Z,14.30
2022-12-03T08:38:58.856Z,14.60
2022-12-03T08:41:51.886Z,14.80
2022-12-03T08:44:28.052Z,15.00
2022-12-03T08:47:24.207Z,15.20
2022-12-03T08:50:34.188Z,15.30
2022-12-03T08:53:11.445Z,15.40
2022-12-03T08:55:41.716Z,15.50
2022-12-03T08:58:22.924Z,15.60
2022-12-03T09:00:58.095Z,15.70
2022-12-03T09:03:24.918Z,15.40
2022-12-03T09:05:51.536Z,15.40
2022-12-03T09:08:18.269Z,15.50
2022-12-03T09:10:44.857Z,15.60
2022-12-03T09:13:11.400Z,15.70
2022-12-03T09:15:37.965Z,15.70
2022-12-03T09:18:04.703Z,15.70
2022-12-03T09:20:31.293Z,15.80
2022-12-03T09:22:57.846Z,15.80
2022-12-03T09:25:24.431Z,15.80
2022-12-03T09:27:51.008Z,15.80
2022-12-03T09:30:17.617Z,15.80
2022-12-03T09:32:44.218Z,15.90
2022-12-03T09:35:10.867Z,15.80
2022-12-03T09:37:37.446Z,15.90
2022-12-03T09:40:04.817Z,15.90
2022-12-03T09:42:31.589Z,15.90
2022-12-03T09:44:58.617Z,15.90
2022-12-03T09:47:25.364Z,15.90
2022-12-03T09:49:52.992Z,15.90
2022-12-03T09:52:25.538Z,15.90
2022-12-03T09:54:53.742Z,15.90
2022-12-03T09:57:21.015Z,15.90
2022-12-03T09:59:47.958Z,15.90
2022-12-03T10:02:34.979Z,15.90
2022-12-03T10:05:02.068Z,15.80
2022-12-03T10:07:29.039Z,15.80
2022-12-03T10:09:56.072Z,15.80
2022-12-03T10:12:24.766Z,15.90
2022-12-03T10:14:53.182Z,15.80
2022-12-03T10:17:19.978Z,15.90
2022-12-03T10:19:46.835Z,15.90
2022-12-03T10:22:13.406Z,15.90
2022-12-03T10:24:40.011Z,15.90
2022-12-03T10:27:24.316Z,15.90
2022-12-03T10:30:02.147Z,15.90
2022-12-03T10:32:47.307Z,15.90
2022-12-03T10:35:22.681Z,15.90
2022-12-03T10:38:15.161Z,15.90
2022-12-03T10:40:41.845Z,15.90
2022-12-03T10:43:25.299Z,15.90
2022-12-03T10:46:11.152Z,15.90
2022-12-03T10:48:38.273Z,15.90
2022-12-03T10:51:22.845Z,15.90
2022-12-03T10:53:50.533Z,15.90
2022-12-03T10:56:25.333Z,15.90
2022-12-03T10:58:52.408Z,15.90
2022-12-03T11:01:25.301Z,15.90
2022-12-03T11:03:53.836Z,15.90
2022-12-03T11:06:22.813Z,16.00
2022-12-03T11:08:58.426Z,15.90
2022-12-03T11:11:29.339Z,16.00
2022-12-03T11:14:01.977Z,16.00
2022-12-03T11:16:40.829Z,16.00
2022-12-03T11:19:13.216Z,16.00
2022-12-03T11:22:09.809Z,15.90
2022-12-03T11:24:38.483Z,15.90
2022-12-03T11:27:06.732Z,15.90
2022-12-03T11:29:51.358Z,15.90
2022-12-03T11:32:39.616Z,15.90
2022-12-03T11:35:13.279Z,15.90
2022-12-03T11:37:39.911Z,15.90
2022-12-03T11:40:27.848Z,15.90
2022-12-03T11:42:54.453Z,15.90
2022-12-03T11:45:33.261Z,15.90
2022-12-03T11:48:00.248Z,16.20
2022-12-03T11:50:39.361Z,16.00
2022-12-03T11:53:15.620Z,16.00
2022-12-03T11:55:46.789Z,16.00
2022-12-03T11:58:18.170Z,16.00
2022-12-03T12:00:53.001Z,16.00
2022-12-03T12:03:25.115Z,16.00
2022-12-03T12:06:07.982Z,16.00
2022-12-03T12:08:36.501Z,16.00
2022-12-03T12:11:03.969Z,16.00
2022-12-03T12:13:30.497Z,16.00
2022-12-03T12:15:58.936Z,16.00
2022-12-03T12:18:43.629Z,16.00
2022-12-03T12:21:58.059Z,16.00
2022-12-03T12:24:28.574Z,16.00
2022-12-03T12:26:56.184Z,16.00
2022-12-03T12:29:22.734Z,16.00
2022-12-03T12:31:53.956Z,16.00
2022-12-03T12:34:20.897Z,16.00
2022-12-03T12:36:47.442Z,16.00
2022-12-03T12:39:15.714Z,16.00
2022-12-03T12:41:47.074Z,16.00
2022-12-03T12:44:14.298Z,16.00
2022-12-03T12:46:48.307Z,16.00
2022-12-03T12:49:15.602Z,16.00
2022-12-03T12:51:47.105Z,16.00
2022-12-03T12:54:17.162Z,16.00
2022-12-03T12:56:46.428Z,16.00
2022-12-03T12:59:15.849Z,16.10
2022-12-03T13:01:44.391Z,16.10
2022-12-03T13:04:16.709Z,16.10
2022-12-03T13:06:44.060Z,16.10
2022-12-03T13:09:25.116Z,16.00
2022-12-03T13:11:58.441Z,16.00
2022-12-03T13:14:31.228Z,16.00
2022-12-03T13:16:59.519Z,16.00
2022-12-03T13:19:28.876Z,16.00
2022-12-03T13:21:58.453Z,16.00
2022-12-03T13:24:32.644Z,16.00
2022-12-03T13:27:03.272Z,16.00
2022-12-03T13:29:31.951Z,16.10
2022-12-03T13:32:01.416Z,16.10
2022-12-03T13:34:36.079Z,16.10
2022-12-03T13:37:06.745Z,16.10
2022-12-03T13:39:40.008Z,16.10
2022-12-03T13:42:40.547Z,16.10
2022-12-03T13:45:19.147Z,16.20
2022-12-03T13:47:47.291Z,16.20
2022-12-03T13:50:40.687Z,16.10
2022-12-03T13:53:13.240Z,16.10
2022-12-03T13:55:44.111Z,16.10
2022-12-03T13:58:10.730Z,16.20
2022-12-03T14:00:37.573Z,16.20
2022-12-03T14:03:04.927Z,16.20
2022-12-03T14:05:31.661Z,16.20
2022-12-03T14:08:01.542Z,16.20
2022-12-03T14:10:29.375Z,16.20
2022-12-03T14:12:56.705Z,16.30
2022-12-03T14:15:23.300Z,16.30
2022-12-03T14:17:49.887Z,16.20
2022-12-03T14:20:16.578Z,16.30
2022-12-03T14:22:43.139Z,16.30
2022-12-03T14:25:10.665Z,16.30
2022-12-03T14:27:37.685Z,16.30
2022-12-03T14:30:04.949Z,16.30
2022-12-03T14:32:31.756Z,16.30
2022-12-03T14:34:58.340Z,16.30
2022-12-03T14:37:24.949Z,16.30
2022-12-03T14:39:51.649Z,16.30
2022-12-03T14:42:18.504Z,16.30
2022-12-03T14:44:51.971Z,16.30
2022-12-03T14:47:22.493Z,16.30
2022-12-03T14:49:49.861Z,16.30
2022-12-03T14:52:17.346Z,14.60
2022-12-03T14:54:44.342Z,14.80
2022-12-03T14:57:15.087Z,15.30
2022-12-03T14:59:43.383Z,15.70
2022-12-03T15:02:11.694Z,16.00
2022-12-03T15:04:39.890Z,16.10
2022-12-03T15:07:06.989Z,16.10
2022-12-03T15:09:33.647Z,16.10
2022-12-03T15:12:00.240Z,16.20
2022-12-03T15:14:26.980Z,16.20
2022-12-03T15:16:53.667Z,15.70
2022-12-03T15:19:20.322Z,15.50
2022-12-03T15:21:46.866Z,12.60
2022-12-03T15:24:13.471Z,11.10
2022-12-03T15:26:40.034Z,12.10
2022-12-03T15:29:06.572Z,13.10
2022-12-03T15:31:33.284Z,13.90
2022-12-03T15:33:59.923Z,14.50
2022-12-03T15:36:26.539Z,14.80
2022-12-03T15:38:53.152Z,15.10
2022-12-03T15:41:29.079Z,15.30
2022-12-03T15:44:03.520Z,15.40
2022-12-03T15:46:31.367Z,15.50
2022-12-03T15:48:58.547Z,15.60
2022-12-03T15:51:25.097Z,15.70
2022-12-03T15:53:52.079Z,15.70
2022-12-03T15:56:18.756Z,15.80
2022-12-03T15:58:45.395Z,15.90
2022-12-03T16:01:13.487Z,15.90
2022-12-03T16:03:40.374Z,16.00
2022-12-03T16:06:07.286Z,15.50
2022-12-03T16:08:33.870Z,15.00
2022-12-03T16:11:00.446Z,15.30
2022-12-03T16:13:26.976Z,15.50
2022-12-03T16:15:53.651Z,15.70
2022-12-03T16:18:20.311Z,15.80
2022-12-03T16:20:46.967Z,15.90
2022-12-03T16:23:13.646Z,15.90
2022-12-03T16:25:40.174Z,15.90
2022-12-03T16:28:06.785Z,16.00
2022-12-03T16:30:33.517Z,16.00
2022-12-03T16:33:00.167Z,16.00
2022-12-03T16:35:26.795Z,16.00
2022-12-03T16:37:53.415Z,16.00
2022-12-03T16:40:20.061Z,15.90
2022-12-03T16:42:46.615Z,15.80
2022-12-03T16:45:33.135Z,15.90
2022-12-03T16:48:01.256Z,15.90
2022-12-03T16:50:30.204Z,16.00
2022-12-03T16:52:57.221Z,16.00
2022-12-03T16:55:23.813Z,16.00
2022-12-03T16:57:50.386Z,16.00
2022-12-03T17:00:17.604Z,16.00
2022-12-03T17:02:44.232Z,16.00
2022-12-03T17:05:10.924Z,16.00
2022-12-03T17:07:37.656Z,16.00
2022-12-03T17:10:05.379Z,16.00
2022-12-03T17:13:00.814Z,16.00
2022-12-03T17:15:20.232Z,16.00
2022-12-03T17:17:46.862Z,16.00
2022-12-03T17:20:14.586Z,16.10
2022-12-03T17:22:41.625Z,16.10
2022-12-03T17:25:09.182Z,16.10
2022-12-03T17:27:44.634Z,16.10
2022-12-03T17:30:12.810Z,16.10
2022-12-03T17:32:39.748Z,16.10
2022-12-03T17:35:06.927Z,16.10
2022-12-03T17:37:33.583Z,16.00
2022-12-03T17:40:00.270Z,16.10
2022-12-03T17:42:26.917Z,16.10
2022-12-03T17:44:53.478Z,16.10
2022-12-03T17:47:20.097Z,16.10
2022-12-03T17:49:46.635Z,16.10
2022-12-03T17:52:13.180Z,16.10
2022-12-03T17:55:08.502Z,16.10
2022-12-03T17:57:26.415Z,16.10
2022-12-03T17:59:53.304Z,16.10
2022-12-03T18:02:20.309Z,16.10
2022-12-03T18:04:46.911Z,16.10
2022-12-03T18:07:13.462Z,16.10
2022-12-03T18:09:40.020Z,16.10
2022-12-03T18:12:06.851Z,16.10
2022-12-03T18:14:33.432Z,16.10
2022-12-03T18:17:02.982Z,16.10
2022-12-03T18:19:29.549Z,16.10
2022-12-03T18:21:56.168Z,16.10
2022-12-03T18:24:24.433Z,16.10
2022-12-03T18:26:51.081Z,16.10
2022-12-03T18:29:17.691Z,16.10
2022-12-03T18:31:44.333Z,16.10
2022-12-03T18:34:10.916Z,16.20
2022-12-03T18:36:37.473Z,16.10
2022-12-03T18:39:11.838Z,16.10
2022-12-03T18:41:38.422Z,17.10
2022-12-03T18:44:09.558Z,16.10
2022-12-03T18:49:22.950Z,16.10
2022-12-03T18:51:53.345Z,16.10
2022-12-03T18:54:24.095Z,16.10
2022-12-03T18:56:50.645Z,15.50
2022-12-03T18:59:17.268Z,15.70
2022-12-03T19:01:43.964Z,15.90
2022-12-03T19:04:10.893Z,16.00
2022-12-03T19:06:37.471Z,16.00
2022-12-03T19:09:04.493Z,16.00
2022-12-03T19:11:31.313Z,16.00
2022-12-03T19:13:59.043Z,16.00
2022-12-03T19:16:25.819Z,16.10
2022-12-03T19:18:53.792Z,16.10
2022-12-03T19:21:20.491Z,16.10
2022-12-03T19:24:21.981Z,16.10
2022-12-03T19:26:34.179Z,16.10
2022-12-03T19:29:00.893Z,16.10
2022-12-03T19:31:28.919Z,16.10
2022-12-03T19:33:55.585Z,16.10
2022-12-03T19:36:24.891Z,16.10
2022-12-03T19:38:56.833Z,16.10
2022-12-03T19:41:27.276Z,16.10
2022-12-03T19:43:55.584Z,16.10
2022-12-03T19:46:24.754Z,16.10
2022-12-03T19:48:51.669Z,16.10
2022-12-03T19:51:34.251Z,16.10
2022-12-03T19:54:01.861Z,16.10
2022-12-03T19:56:30.155Z,16.10
2022-12-03T19:58:57.410Z,16.10
2022-12-03T20:01:26.665Z,16.10
2022-12-03T20:03:55.721Z,16.10
2022-12-03T20:06:24.761Z,16.10
2022-12-03T20:08:55.839Z,16.10
2022-12-03T20:11:25.693Z,16.10
2022-12-03T20:13:54.584Z,16.10
2022-12-03T20:16:21.739Z,16.10
2022-12-03T20:18:49.513Z,16.10
2022-12-03T20:21:19.252Z,16.10
2022-12-03T20:23:46.781Z,16.10
2022-12-03T20:26:16.568Z,16.10
2022-12-03T20:28:43.592Z,16.10
2022-12-03T20:31:13.501Z,16.10
2022-12-03T20:33:42.758Z,16.10
2022-12-03T20:36:10.737Z,16.10
2022-12-03T20:38:37.342Z,16.10
2022-12-03T20:41:07.012Z,16.10
2022-12-03T20:43:34.818Z,16.10
2022-12-03T20:46:14.811Z,16.20
2022-12-03T20:48:42.801Z,16.20
2022-12-03T20:51:12.263Z,16.20
2022-12-03T20:53:39.188Z,16.10
2022-12-03T20:56:06.255Z,16.10
2022-12-03T20:58:33.328Z,16.10
2022-12-03T21:01:18.695Z,16.10
2022-12-03T21:03:46.279Z,16.10
2022-12-03T21:06:13.560Z,16.10
2022-12-03T21:08:42.370Z,16.10
2022-12-03T21:11:30.921Z,16.10
2022-12-03T21:13:58.908Z,16.10
2022-12-03T21:16:52.027Z,16.10
2022-12-03T21:19:17.085Z,16.10
2022-12-03T21:21:43.920Z,16.10
2022-12-03T21:24:12.342Z,16.00
2022-12-03T21:26:39.040Z,16.00
2022-12-03T21:29:05.578Z,16.00
2022-12-03T21:31:32.391Z,16.00
2022-12-03T21:33:59.178Z,16.00
2022-12-03T21:36:25.992Z,16.00
2022-12-03T21:38:52.893Z,15.90
2022-12-03T21:41:19.504Z,15.90
2022-12-03T21:43:46.093Z,15.90
2022-12-03T21:47:12.584Z,15.90
2022-12-03T21:49:01.679Z,15.90
2022-12-03T21:51:28.349Z,15.90
2022-12-03T21:53:54.972Z,15.90
2022-12-03T21:56:21.584Z,15.80
2022-12-03T21:58:48.185Z,15.80
2022-12-03T22:01:21.539Z,15.80
2022-12-03T22:03:48.735Z,15.80
2022-12-03T22:06:16.421Z,15.80
2022-12-03T22:08:43.517Z,15.80
2022-12-03T22:11:22.185Z,15.80
2022-12-03T22:13:49.260Z,15.80
2022-12-03T22:16:19.379Z,15.80
2022-12-03T22:18:46.085Z,15.80
2022-12-03T22:21:16.843Z,15.70
2022-12-03T22:23:43.667Z,15.70
2022-12-03T22:26:15.562Z,15.80
2022-12-03T22:28:47.008Z,15.70
2022-12-03T22:31:14.383Z,15.80
2022-12-03T22:33:41.817Z,15.80
2022-12-03T22:36:16.409Z,15.80
2022-12-03T22:38:45.264Z,15.70
2022-12-03T22:41:13.281Z,15.70
2022-12-03T22:43:40.173Z,15.00
2022-12-03T22:46:12.324Z,14.80
2022-12-03T22:48:40.367Z,15.20
2022-12-03T22:51:15.825Z,15.30
2022-12-03T22:53:42.509Z,15.40
2022-12-03T22:56:09.811Z,13.40
2022-12-03T22:58:38.287Z,11.50
2022-12-03T23:01:05.078Z,12.20
2022-12-03T23:03:31.775Z,13.20
2022-12-03T23:05:58.402Z,13.80
2022-12-03T23:08:25.102Z,14.30
2022-12-03T23:10:52.970Z,14.50
2022-12-03T23:13:20.209Z,14.70
2022-12-03T23:15:48.938Z,14.90
2022-12-03T23:18:15.606Z,14.90
2022-12-03T23:20:47.456Z,15.00
2022-12-03T23:23:15.030Z,15.00
2022-12-03T23:25:42.046Z,15.10
2022-12-03T23:28:09.776Z,15.10
2022-12-03T23:30:37.789Z,15.10
2022-12-03T23:33:05.564Z,15.10
2022-12-03T23:35:33.365Z,15.10
2022-12-03T23:38:00.060Z,15.10
2022-12-03T23:40:26.663Z,15.10
2022-12-03T23:42:53.177Z,15.10
2022-12-03T23:45:19.700Z,15.10
2022-12-03T23:47:46.236Z,15.10
2022-12-03T23:50:12.933Z,14.80
2022-12-03T23:52:39.453Z,14.90
2022-12-03T23:55:06.424Z,15.00
2022-12-03T23:57:34.093Z,15.10
